Terminal Aerodrome Forecast
Issued by NWS Charleston, WV

Current Version | Previous Version | Graphics & Text | Print | Product List | Glossary On
Versions: 1 2 3 4 5 6 7 8 9 10 11 12 13 14 15 16 17 18 19 20 21 22 23 24 25 26
000
FTUS41 KRLX 191500 AAA
TAFBKW
TAF AMD
KBKW 191512Z 1915/2012 15008KT 6SM -RA BR BKN010 OVC060
      TEMPO 1915/1917 2SM RA SCT010 OVC060
     FM191700 16010G15KT 6SM -RA OVC060
     FM192300 15007KT 6SM SHRA OVC060
     FM200500 15004KT P6SM BKN015=

USA.gov is the U.S. government's official web portal to all federal, state and local government web resources and services.